sensor_id;sensor_type;location;lat;lon;timestamp;P1;durP1;ratioP1;P2;durP2;ratioP2
7160;SDS011;3622;53.576;9.978;2023-06-24T00:01:21;19.00;;;10.50;;
7160;SDS011;3622;53.576;9.978;2023-06-24T00:03:47;26.83;;;12.37;;
7160;SDS011;3622;53.576;9.978;2023-06-24T00:06:17;22.50;;;11.77;;
7160;SDS011;3622;53.576;9.978;2023-06-24T00:08:44;24.47;;;11.97;;
7160;SDS011;3622;53.576;9.978;2023-06-24T00:11:10;18.70;;;11.00;;
7160;SDS011;3622;53.576;9.978;2023-06-24T00:13:37;27.40;;;13.27;;
7160;SDS011;3622;53.576;9.978;2023-06-24T00:16:03;21.50;;;10.80;;
7160;SDS011;3622;53.576;9.978;2023-06-24T00:18:31;21.07;;;11.03;;
7160;SDS011;3622;53.576;9.978;2023-06-24T00:20:57;33.00;;;18.77;;
7160;SDS011;3622;53.576;9.978;2023-06-24T00:23:23;16.17;;;10.00;;
7160;SDS011;3622;53.576;9.978;2023-06-24T00:25:52;30.20;;;16.30;;
7160;SDS011;3622;53.576;9.978;2023-06-24T00:28:19;18.60;;;10.67;;
7160;SDS011;3622;53.576;9.978;2023-06-24T00:30:45;20.73;;;11.17;;
7160;SDS011;3622;53.576;9.978;2023-06-24T00:33:11;30.93;;;11.57;;
7160;SDS011;3622;53.576;9.978;2023-06-24T00:35:38;26.20;;;11.83;;
7160;SDS011;3622;53.576;9.978;2023-06-24T00:38:04;20.33;;;10.97;;
7160;SDS011;3622;53.576;9.978;2023-06-24T00:40:30;21.87;;;10.87;;
7160;SDS011;3622;53.576;9.978;2023-06-24T00:42:56;30.10;;;12.03;;
7160;SDS011;3622;53.576;9.978;2023-06-24T00:45:22;17.50;;;10.07;;
7160;SDS011;3622;53.576;9.978;2023-06-24T00:47:48;30.87;;;13.20;;
7160;SDS011;3622;53.576;9.978;2023-06-24T00:50:15;24.60;;;10.43;;
7160;SDS011;3622;53.576;9.978;2023-06-24T00:52:41;20.97;;;11.53;;
7160;SDS011;3622;53.576;9.978;2023-06-24T00:55:09;18.40;;;10.40;;
7160;SDS011;3622;53.576;9.978;2023-06-24T00:57:36;22.70;;;11.80;;
7160;SDS011;3622;53.576;9.978;2023-06-24T01:00:03;21.47;;;10.50;;
7160;SDS011;3622;53.576;9.978;2023-06-24T01:02:34;27.53;;;11.67;;
7160;SDS011;3622;53.576;9.978;2023-06-24T01:05:02;27.10;;;11.03;;
7160;SDS011;3622;53.576;9.978;2023-06-24T01:07:28;26.10;;;11.73;;
7160;SDS011;3622;53.576;9.978;2023-06-24T01:09:55;27.40;;;10.37;;
7160;SDS011;3622;53.576;9.978;2023-06-24T01:12:21;22.93;;;10.50;;
7160;SDS011;3622;53.576;9.978;2023-06-24T01:14:47;20.83;;;10.57;;
7160;SDS011;3622;53.576;9.978;2023-06-24T01:17:16;21.47;;;10.33;;
7160;SDS011;3622;53.576;9.978;2023-06-24T01:19:51;19.23;;;10.40;;
7160;SDS011;3622;53.576;9.978;2023-06-24T01:28:16;21.43;;;10.73;;
7160;SDS011;3622;53.576;9.978;2023-06-24T01:33:10;15.97;;;10.40;;
7160;SDS011;3622;53.576;9.978;2023-06-24T01:35:37;22.77;;;12.23;;
7160;SDS011;3622;53.576;9.978;2023-06-24T01:38:06;29.23;;;14.53;;
7160;SDS011;3622;53.576;9.978;2023-06-24T01:40:35;25.77;;;11.93;;
7160;SDS011;3622;53.576;9.978;2023-06-24T01:43:03;19.67;;;10.97;;
7160;SDS011;3622;53.576;9.978;2023-06-24T01:45:32;25.30;;;12.90;;
7160;SDS011;3622;53.576;9.978;2023-06-24T01:48:00;28.70;;;11.13;;
7160;SDS011;3622;53.576;9.978;2023-06-24T01:50:27;23.67;;;12.13;;
7160;SDS011;3622;53.576;9.978;2023-06-24T01:52:56;23.97;;;11.10;;
7160;SDS011;3622;53.576;9.978;2023-06-24T01:55:23;20.23;;;10.43;;
7160;SDS011;3622;53.576;9.978;2023-06-24T01:57:50;23.37;;;11.30;;
7160;SDS011;3622;53.576;9.978;2023-06-24T02:00:17;26.37;;;11.00;;
7160;SDS011;3622;53.576;9.978;2023-06-24T02:02:43;28.23;;;11.63;;
7160;SDS011;3622;53.576;9.978;2023-06-24T02:05:10;26.17;;;12.17;;
7160;SDS011;3622;53.576;9.978;2023-06-24T02:07:37;25.50;;;11.23;;
7160;SDS011;3622;53.576;9.978;2023-06-24T02:10:04;20.33;;;10.23;;
7160;SDS011;3622;53.576;9.978;2023-06-24T02:12:30;20.67;;;10.90;;
7160;SDS011;3622;53.576;9.978;2023-06-24T02:14:56;22.00;;;11.40;;
7160;SDS011;3622;53.576;9.978;2023-06-24T02:17:24;22.73;;;11.20;;
7160;SDS011;3622;53.576;9.978;2023-06-24T02:19:52;21.67;;;10.63;;
7160;SDS011;3622;53.576;9.978;2023-06-24T02:22:18;16.43;;;10.27;;
7160;SDS011;3622;53.576;9.978;2023-06-24T02:24:45;27.60;;;11.87;;
7160;SDS011;3622;53.576;9.978;2023-06-24T02:27:11;20.33;;;11.07;;
7160;SDS011;3622;53.576;9.978;2023-06-24T02:29:38;19.90;;;10.33;;
7160;SDS011;3622;53.576;9.978;2023-06-24T02:32:05;20.07;;;10.67;;
7160;SDS011;3622;53.576;9.978;2023-06-24T02:34:31;17.33;;;10.60;;
7160;SDS011;3622;53.576;9.978;2023-06-24T02:36:57;17.03;;;10.33;;
7160;SDS011;3622;53.576;9.978;2023-06-24T02:39:24;19.97;;;10.20;;
7160;SDS011;3622;53.576;9.978;2023-06-24T02:41:49;28.47;;;12.03;;
7160;SDS011;3622;53.576;9.978;2023-06-24T02:44:16;23.27;;;12.10;;
7160;SDS011;3622;53.576;9.978;2023-06-24T02:46:42;23.67;;;11.53;;
7160;SDS011;3622;53.576;9.978;2023-06-24T02:49:09;26.27;;;13.27;;
7160;SDS011;3622;53.576;9.978;2023-06-24T02:51:36;27.50;;;12.00;;
7160;SDS011;3622;53.576;9.978;2023-06-24T02:54:02;26.47;;;13.00;;
7160;SDS011;3622;53.576;9.978;2023-06-24T02:56:29;23.37;;;11.20;;
7160;SDS011;3622;53.576;9.978;2023-06-24T02:58:55;25.73;;;12.57;;
7160;SDS011;3622;53.576;9.978;2023-06-24T03:01:21;25.40;;;12.30;;
7160;SDS011;3622;53.576;9.978;2023-06-24T03:03:53;23.17;;;11.90;;
7160;SDS011;3622;53.576;9.978;2023-06-24T03:06:19;27.10;;;12.33;;
7160;SDS011;3622;53.576;9.978;2023-06-24T03:08:46;18.87;;;11.60;;
7160;SDS011;3622;53.576;9.978;2023-06-24T03:11:13;27.10;;;12.40;;
7160;SDS011;3622;53.576;9.978;2023-06-24T03:13:39;24.57;;;12.80;;
7160;SDS011;3622;53.576;9.978;2023-06-24T03:16:05;22.93;;;12.30;;
7160;SDS011;3622;53.576;9.978;2023-06-24T03:18:36;29.73;;;13.63;;
7160;SDS011;3622;53.576;9.978;2023-06-24T03:21:03;22.97;;;13.10;;
7160;SDS011;3622;53.576;9.978;2023-06-24T03:23:31;21.77;;;12.07;;
7160;SDS011;3622;53.576;9.978;2023-06-24T03:25:57;25.93;;;13.80;;
7160;SDS011;3622;53.576;9.978;2023-06-24T03:28:23;29.23;;;14.40;;
7160;SDS011;3622;53.576;9.978;2023-06-24T03:30:48;23.53;;;12.13;;
7160;SDS011;3622;53.576;9.978;2023-06-24T03:33:14;29.53;;;11.67;;
7160;SDS011;3622;53.576;9.978;2023-06-24T03:35:42;26.00;;;12.43;;
7160;SDS011;3622;53.576;9.978;2023-06-24T03:38:08;21.80;;;11.73;;
7160;SDS011;3622;53.576;9.978;2023-06-24T03:40:34;23.07;;;11.90;;
7160;SDS011;3622;53.576;9.978;2023-06-24T03:43:00;23.97;;;11.67;;
7160;SDS011;3622;53.576;9.978;2023-06-24T03:45:26;20.47;;;11.20;;
7160;SDS011;3622;53.576;9.978;2023-06-24T03:47:52;23.50;;;12.27;;
7160;SDS011;3622;53.576;9.978;2023-06-24T03:50:18;25.67;;;12.63;;
7160;SDS011;3622;53.576;9.978;2023-06-24T03:52:44;27.70;;;12.70;;
7160;SDS011;3622;53.576;9.978;2023-06-24T03:55:10;21.50;;;10.97;;
7160;SDS011;3622;53.576;9.978;2023-06-24T03:57:36;22.20;;;11.80;;
7160;SDS011;3622;53.576;9.978;2023-06-24T04:00:02;23.03;;;11.93;;
7160;SDS011;3622;53.576;9.978;2023-06-24T04:02:42;23.50;;;11.37;;
7160;SDS011;3622;53.576;9.978;2023-06-24T04:05:08;20.60;;;11.60;;
7160;SDS011;3622;53.576;9.978;2023-06-24T04:07:34;28.03;;;11.63;;
7160;SDS011;3622;53.576;9.978;2023-06-24T04:10:01;28.27;;;11.90;;
7160;SDS011;3622;53.576;9.978;2023-06-24T04:12:28;37.60;;;16.23;;
7160;SDS011;3622;53.576;9.978;2023-06-24T04:14:54;109.07;;;35.53;;
7160;SDS011;3622;53.576;9.978;2023-06-24T04:17:20;149.13;;;46.07;;
7160;SDS011;3622;53.576;9.978;2023-06-24T04:19:46;191.50;;;58.53;;
7160;SDS011;3622;53.576;9.978;2023-06-24T04:22:12;151.93;;;52.80;;
7160;SDS011;3622;53.576;9.978;2023-06-24T04:24:38;258.53;;;77.07;;
7160;SDS011;3622;53.576;9.978;2023-06-24T04:27:05;272.27;;;78.83;;
7160;SDS011;3622;53.576;9.978;2023-06-24T04:29:31;268.10;;;81.47;;
7160;SDS011;3622;53.576;9.978;2023-06-24T04:31:57;309.80;;;93.10;;
7160;SDS011;3622;53.576;9.978;2023-06-24T04:34:23;286.87;;;89.37;;
7160;SDS011;3622;53.576;9.978;2023-06-24T04:36:49;267.43;;;87.07;;
7160;SDS011;3622;53.576;9.978;2023-06-24T04:39:15;265.80;;;86.43;;
7160;SDS011;3622;53.576;9.978;2023-06-24T04:41:41;268.03;;;85.60;;
7160;SDS011;3622;53.576;9.978;2023-06-24T04:44:06;275.93;;;86.63;;
7160;SDS011;3622;53.576;9.978;2023-06-24T04:46:32;256.47;;;81.23;;
7160;SDS011;3622;53.576;9.978;2023-06-24T04:48:59;266.67;;;86.87;;
7160;SDS011;3622;53.576;9.978;2023-06-24T04:51:25;291.70;;;95.07;;
7160;SDS011;3622;53.576;9.978;2023-06-24T04:53:51;285.47;;;93.07;;
7160;SDS011;3622;53.576;9.978;2023-06-24T04:56:17;283.83;;;97.47;;
7160;SDS011;3622;53.576;9.978;2023-06-24T04:58:43;305.10;;;104.53;;
7160;SDS011;3622;53.576;9.978;2023-06-24T05:01:09;305.93;;;107.87;;
7160;SDS011;3622;53.576;9.978;2023-06-24T05:03:35;302.73;;;105.40;;
7160;SDS011;3622;53.576;9.978;2023-06-24T05:06:01;313.73;;;101.23;;
7160;SDS011;3622;53.576;9.978;2023-06-24T05:08:27;299.83;;;103.80;;
7160;SDS011;3622;53.576;9.978;2023-06-24T05:10:53;287.83;;;99.43;;
7160;SDS011;3622;53.576;9.978;2023-06-24T05:13:19;309.23;;;109.37;;
7160;SDS011;3622;53.576;9.978;2023-06-24T05:15:45;318.27;;;108.60;;
7160;SDS011;3622;53.576;9.978;2023-06-24T05:18:11;287.27;;;104.67;;
7160;SDS011;3622;53.576;9.978;2023-06-24T05:20:37;300.97;;;107.07;;
7160;SDS011;3622;53.576;9.978;2023-06-24T05:23:03;284.07;;;99.57;;
7160;SDS011;3622;53.576;9.978;2023-06-24T05:25:29;296.57;;;106.00;;
7160;SDS011;3622;53.576;9.978;2023-06-24T05:27:55;284.57;;;103.87;;
7160;SDS011;3622;53.576;9.978;2023-06-24T05:30:21;302.03;;;108.57;;
7160;SDS011;3622;53.576;9.978;2023-06-24T05:32:46;298.00;;;108.83;;
7160;SDS011;3622;53.576;9.978;2023-06-24T05:35:13;299.73;;;109.47;;
7160;SDS011;3622;53.576;9.978;2023-06-24T05:37:39;296.30;;;106.87;;
7160;SDS011;3622;53.576;9.978;2023-06-24T05:40:05;319.70;;;117.80;;
7160;SDS011;3622;53.576;9.978;2023-06-24T05:42:31;341.20;;;120.57;;
7160;SDS011;3622;53.576;9.978;2023-06-24T05:44:58;338.90;;;122.10;;
7160;SDS011;3622;53.576;9.978;2023-06-24T05:47:24;366.30;;;128.07;;
7160;SDS011;3622;53.576;9.978;2023-06-24T05:49:50;340.13;;;126.97;;
7160;SDS011;3622;53.576;9.978;2023-06-24T05:52:16;332.23;;;122.60;;
7160;SDS011;3622;53.576;9.978;2023-06-24T05:54:42;352.37;;;126.40;;
7160;SDS011;3622;53.576;9.978;2023-06-24T05:57:08;345.23;;;125.30;;
7160;SDS011;3622;53.576;9.978;2023-06-24T05:59:35;357.40;;;128.87;;
7160;SDS011;3622;53.576;9.978;2023-06-24T06:02:01;356.43;;;127.17;;
7160;SDS011;3622;53.576;9.978;2023-06-24T06:04:27;371.00;;;142.47;;
7160;SDS011;3622;53.576;9.978;2023-06-24T06:06:53;359.13;;;132.50;;
7160;SDS011;3622;53.576;9.978;2023-06-24T06:09:19;348.57;;;127.03;;
7160;SDS011;3622;53.576;9.978;2023-06-24T06:11:45;339.23;;;132.30;;
7160;SDS011;3622;53.576;9.978;2023-06-24T06:14:11;333.20;;;132.67;;
7160;SDS011;3622;53.576;9.978;2023-06-24T06:16:37;330.50;;;125.40;;
7160;SDS011;3622;53.576;9.978;2023-06-24T06:19:03;344.23;;;128.03;;
7160;SDS011;3622;53.576;9.978;2023-06-24T06:21:29;307.07;;;121.00;;
7160;SDS011;3622;53.576;9.978;2023-06-24T06:23:55;299.43;;;118.80;;
7160;SDS011;3622;53.576;9.978;2023-06-24T06:26:21;272.43;;;106.57;;
7160;SDS011;3622;53.576;9.978;2023-06-24T06:28:47;265.30;;;98.43;;
7160;SDS011;3622;53.576;9.978;2023-06-24T06:31:14;265.60;;;103.93;;
7160;SDS011;3622;53.576;9.978;2023-06-24T06:33:40;280.00;;;100.57;;
7160;SDS011;3622;53.576;9.978;2023-06-24T06:36:06;261.07;;;97.13;;
7160;SDS011;3622;53.576;9.978;2023-06-24T06:38:32;267.53;;;98.23;;
7160;SDS011;3622;53.576;9.978;2023-06-24T06:40:58;253.97;;;93.97;;
7160;SDS011;3622;53.576;9.978;2023-06-24T06:43:24;252.83;;;98.57;;
7160;SDS011;3622;53.576;9.978;2023-06-24T06:45:50;280.90;;;97.07;;
7160;SDS011;3622;53.576;9.978;2023-06-24T06:48:16;240.10;;;89.57;;
7160;SDS011;3622;53.576;9.978;2023-06-24T06:50:42;282.00;;;99.37;;
7160;SDS011;3622;53.576;9.978;2023-06-24T06:53:08;288.83;;;99.30;;
7160;SDS011;3622;53.576;9.978;2023-06-24T06:55:35;330.47;;;109.37;;
7160;SDS011;3622;53.576;9.978;2023-06-24T06:58:02;340.37;;;119.83;;
7160;SDS011;3622;53.576;9.978;2023-06-24T07:00:28;359.20;;;126.13;;
7160;SDS011;3622;53.576;9.978;2023-06-24T07:02:54;362.43;;;128.10;;
7160;SDS011;3622;53.576;9.978;2023-06-24T07:05:20;364.43;;;128.30;;
7160;SDS011;3622;53.576;9.978;2023-06-24T07:07:46;360.50;;;128.00;;
7160;SDS011;3622;53.576;9.978;2023-06-24T07:10:12;363.37;;;130.40;;
7160;SDS011;3622;53.576;9.978;2023-06-24T07:12:39;380.27;;;135.57;;
7160;SDS011;3622;53.576;9.978;2023-06-24T07:15:05;357.13;;;135.23;;
7160;SDS011;3622;53.576;9.978;2023-06-24T07:17:31;382.77;;;144.13;;
7160;SDS011;3622;53.576;9.978;2023-06-24T07:19:57;355.23;;;136.70;;
7160;SDS011;3622;53.576;9.978;2023-06-24T07:22:22;360.67;;;143.17;;
7160;SDS011;3622;53.576;9.978;2023-06-24T07:24:48;375.70;;;148.10;;
7160;SDS011;3622;53.576;9.978;2023-06-24T07:27:14;368.70;;;149.70;;
7160;SDS011;3622;53.576;9.978;2023-06-24T07:29:40;367.63;;;154.60;;
7160;SDS011;3622;53.576;9.978;2023-06-24T07:32:06;362.57;;;149.23;;
7160;SDS011;3622;53.576;9.978;2023-06-24T07:34:33;366.30;;;154.30;;
7160;SDS011;3622;53.576;9.978;2023-06-24T07:36:59;378.23;;;154.77;;
7160;SDS011;3622;53.576;9.978;2023-06-24T07:39:25;364.30;;;152.87;;
7160;SDS011;3622;53.576;9.978;2023-06-24T07:41:51;359.00;;;150.17;;
7160;SDS011;3622;53.576;9.978;2023-06-24T07:44:16;371.37;;;158.53;;
7160;SDS011;3622;53.576;9.978;2023-06-24T07:46:44;372.37;;;153.40;;
7160;SDS011;3622;53.576;9.978;2023-06-24T07:49:10;372.83;;;152.03;;
7160;SDS011;3622;53.576;9.978;2023-06-24T07:51:36;367.23;;;154.80;;
7160;SDS011;3622;53.576;9.978;2023-06-24T07:54:02;371.13;;;156.87;;
7160;SDS011;3622;53.576;9.978;2023-06-24T07:56:28;368.87;;;153.60;;
7160;SDS011;3622;53.576;9.978;2023-06-24T07:58:53;369.27;;;158.17;;
7160;SDS011;3622;53.576;9.978;2023-06-24T08:01:19;370.43;;;155.50;;
7160;SDS011;3622;53.576;9.978;2023-06-24T08:03:45;365.47;;;156.77;;
7160;SDS011;3622;53.576;9.978;2023-06-24T08:06:11;372.13;;;154.50;;
7160;SDS011;3622;53.576;9.978;2023-06-24T08:08:37;373.20;;;155.30;;
7160;SDS011;3622;53.576;9.978;2023-06-24T08:11:03;378.73;;;161.20;;
7160;SDS011;3622;53.576;9.978;2023-06-24T08:13:29;385.40;;;165.30;;
7160;SDS011;3622;53.576;9.978;2023-06-24T08:15:56;410.90;;;173.57;;
7160;SDS011;3622;53.576;9.978;2023-06-24T08:18:22;402.77;;;171.10;;
7160;SDS011;3622;53.576;9.978;2023-06-24T08:20:48;404.03;;;166.50;;
7160;SDS011;3622;53.576;9.978;2023-06-24T08:23:14;414.13;;;164.50;;
7160;SDS011;3622;53.576;9.978;2023-06-24T08:25:40;404.00;;;162.67;;
7160;SDS011;3622;53.576;9.978;2023-06-24T08:28:05;391.43;;;159.80;;
7160;SDS011;3622;53.576;9.978;2023-06-24T08:30:31;392.33;;;155.90;;
7160;SDS011;3622;53.576;9.978;2023-06-24T08:32:58;436.80;;;177.20;;
7160;SDS011;3622;53.576;9.978;2023-06-24T08:35:23;445.57;;;189.30;;
7160;SDS011;3622;53.576;9.978;2023-06-24T08:37:49;388.37;;;164.77;;
7160;SDS011;3622;53.576;9.978;2023-06-24T08:40:15;396.33;;;162.77;;
7160;SDS011;3622;53.576;9.978;2023-06-24T08:42:43;384.87;;;158.13;;
7160;SDS011;3622;53.576;9.978;2023-06-24T08:45:09;389.40;;;178.10;;
7160;SDS011;3622;53.576;9.978;2023-06-24T08:47:35;420.53;;;182.37;;
7160;SDS011;3622;53.576;9.978;2023-06-24T08:50:03;399.83;;;170.20;;
7160;SDS011;3622;53.576;9.978;2023-06-24T08:52:30;386.10;;;164.57;;
7160;SDS011;3622;53.576;9.978;2023-06-24T08:54:58;414.23;;;166.67;;
7160;SDS011;3622;53.576;9.978;2023-06-24T08:57:25;414.73;;;168.57;;
7160;SDS011;3622;53.576;9.978;2023-06-24T08:59:51;384.10;;;170.53;;
7160;SDS011;3622;53.576;9.978;2023-06-24T09:02:17;391.37;;;169.53;;
7160;SDS011;3622;53.576;9.978;2023-06-24T09:04:43;381.90;;;168.87;;
7160;SDS011;3622;53.576;9.978;2023-06-24T09:07:09;389.10;;;169.50;;
7160;SDS011;3622;53.576;9.978;2023-06-24T09:09:43;420.40;;;171.63;;
7160;SDS011;3622;53.576;9.978;2023-06-24T09:12:10;393.57;;;169.97;;
7160;SDS011;3622;53.576;9.978;2023-06-24T09:14:36;391.27;;;164.80;;
7160;SDS011;3622;53.576;9.978;2023-06-24T09:17:02;380.07;;;162.30;;
7160;SDS011;3622;53.576;9.978;2023-06-24T09:19:31;393.63;;;170.97;;
7160;SDS011;3622;53.576;9.978;2023-06-24T09:22:01;393.73;;;175.47;;
7160;SDS011;3622;53.576;9.978;2023-06-24T09:24:29;414.00;;;180.43;;
7160;SDS011;3622;53.576;9.978;2023-06-24T09:26:55;403.67;;;181.07;;
7160;SDS011;3622;53.576;9.978;2023-06-24T09:29:25;401.67;;;181.73;;
7160;SDS011;3622;53.576;9.978;2023-06-24T09:31:52;400.00;;;168.23;;
7160;SDS011;3622;53.576;9.978;2023-06-24T09:34:19;460.33;;;182.60;;
7160;SDS011;3622;53.576;9.978;2023-06-24T09:36:47;409.43;;;171.90;;
7160;SDS011;3622;53.576;9.978;2023-06-24T09:39:16;401.63;;;176.23;;
7160;SDS011;3622;53.576;9.978;2023-06-24T09:41:42;408.63;;;176.00;;
7160;SDS011;3622;53.576;9.978;2023-06-24T09:44:08;412.30;;;178.10;;
7160;SDS011;3622;53.576;9.978;2023-06-24T09:46:36;408.83;;;181.83;;
7160;SDS011;3622;53.576;9.978;2023-06-24T09:49:03;424.50;;;182.50;;
7160;SDS011;3622;53.576;9.978;2023-06-24T09:51:29;417.97;;;186.13;;
7160;SDS011;3622;53.576;9.978;2023-06-24T09:53:57;431.30;;;191.60;;
7160;SDS011;3622;53.576;9.978;2023-06-24T09:56:23;432.60;;;180.97;;
7160;SDS011;3622;53.576;9.978;2023-06-24T09:58:49;421.53;;;178.67;;
7160;SDS011;3622;53.576;9.978;2023-06-24T10:01:15;398.03;;;172.37;;
7160;SDS011;3622;53.576;9.978;2023-06-24T10:03:42;420.63;;;165.93;;
7160;SDS011;3622;53.576;9.978;2023-06-24T10:06:08;407.77;;;167.30;;
7160;SDS011;3622;53.576;9.978;2023-06-24T10:08:34;422.97;;;171.80;;
7160;SDS011;3622;53.576;9.978;2023-06-24T10:11:00;423.70;;;186.07;;
7160;SDS011;3622;53.576;9.978;2023-06-24T10:13:27;421.23;;;188.80;;
7160;SDS011;3622;53.576;9.978;2023-06-24T10:15:54;432.77;;;191.37;;
7160;SDS011;3622;53.576;9.978;2023-06-24T10:18:31;417.27;;;184.77;;
7160;SDS011;3622;53.576;9.978;2023-06-24T10:20:58;447.07;;;196.30;;
7160;SDS011;3622;53.576;9.978;2023-06-24T10:23:29;430.43;;;188.80;;
7160;SDS011;3622;53.576;9.978;2023-06-24T10:25:55;430.27;;;184.90;;
7160;SDS011;3622;53.576;9.978;2023-06-24T10:28:21;424.00;;;178.30;;
7160;SDS011;3622;53.576;9.978;2023-06-24T10:30:54;456.67;;;195.13;;
7160;SDS011;3622;53.576;9.978;2023-06-24T10:33:20;442.20;;;196.97;;
7160;SDS011;3622;53.576;9.978;2023-06-24T10:35:46;435.93;;;196.27;;
7160;SDS011;3622;53.576;9.978;2023-06-24T10:38:12;454.27;;;223.67;;
7160;SDS011;3622;53.576;9.978;2023-06-24T10:40:43;448.67;;;217.80;;
7160;SDS011;3622;53.576;9.978;2023-06-24T10:45:51;466.53;;;201.00;;
7160;SDS011;3622;53.576;9.978;2023-06-24T10:48:17;477.40;;;201.97;;
7160;SDS011;3622;53.576;9.978;2023-06-24T10:50:47;429.17;;;202.67;;
7160;SDS011;3622;53.576;9.978;2023-06-24T10:53:14;417.63;;;185.23;;
7160;SDS011;3622;53.576;9.978;2023-06-24T10:55:40;376.13;;;191.30;;
7160;SDS011;3622;53.576;9.978;2023-06-24T10:58:10;348.67;;;178.37;;
7160;SDS011;3622;53.576;9.978;2023-06-24T11:00:37;328.67;;;171.63;;
7160;SDS011;3622;53.576;9.978;2023-06-24T11:03:16;318.63;;;162.97;;
7160;SDS011;3622;53.576;9.978;2023-06-24T11:05:45;273.20;;;151.47;;
7160;SDS011;3622;53.576;9.978;2023-06-24T11:08:11;260.40;;;145.30;;
7160;SDS011;3622;53.576;9.978;2023-06-24T11:10:47;261.40;;;147.97;;
7160;SDS011;3622;53.576;9.978;2023-06-24T11:13:13;238.33;;;141.47;;
7160;SDS011;3622;53.576;9.978;2023-06-24T11:15:39;221.93;;;134.70;;
7160;SDS011;3622;53.576;9.978;2023-06-24T11:18:09;212.60;;;132.87;;
7160;SDS011;3622;53.576;9.978;2023-06-24T11:20:36;198.03;;;120.87;;
7160;SDS011;3622;53.576;9.978;2023-06-24T11:23:02;183.27;;;121.50;;
7160;SDS011;3622;53.576;9.978;2023-06-24T11:25:28;167.30;;;112.23;;
7160;SDS011;3622;53.576;9.978;2023-06-24T11:27:54;174.37;;;115.73;;
7160;SDS011;3622;53.576;9.978;2023-06-24T11:30:20;186.33;;;119.00;;
7160;SDS011;3622;53.576;9.978;2023-06-24T11:32:46;206.30;;;123.43;;
7160;SDS011;3622;53.576;9.978;2023-06-24T11:35:15;201.40;;;124.67;;
7160;SDS011;3622;53.576;9.978;2023-06-24T11:37:42;191.27;;;121.33;;
7160;SDS011;3622;53.576;9.978;2023-06-24T11:40:11;161.80;;;101.50;;
7160;SDS011;3622;53.576;9.978;2023-06-24T11:42:39;133.83;;;91.97;;
7160;SDS011;3622;53.576;9.978;2023-06-24T11:45:06;115.90;;;79.03;;
7160;SDS011;3622;53.576;9.978;2023-06-24T11:47:32;158.93;;;104.73;;
7160;SDS011;3622;53.576;9.978;2023-06-24T11:49:59;202.10;;;119.17;;
7160;SDS011;3622;53.576;9.978;2023-06-24T11:55:16;224.00;;;120.53;;
7160;SDS011;3622;53.576;9.978;2023-06-24T11:57:49;239.53;;;124.20;;
7160;SDS011;3622;53.576;9.978;2023-06-24T12:00:16;249.30;;;136.80;;
7160;SDS011;3622;53.576;9.978;2023-06-24T12:02:44;242.33;;;133.67;;
7160;SDS011;3622;53.576;9.978;2023-06-24T12:05:10;245.70;;;133.33;;
7160;SDS011;3622;53.576;9.978;2023-06-24T12:07:36;360.37;;;151.10;;
7160;SDS011;3622;53.576;9.978;2023-06-24T12:10:03;286.07;;;138.67;;
7160;SDS011;3622;53.576;9.978;2023-06-24T12:12:30;292.67;;;142.37;;
7160;SDS011;3622;53.576;9.978;2023-06-24T12:14:56;285.73;;;145.33;;
7160;SDS011;3622;53.576;9.978;2023-06-24T12:17:22;296.53;;;149.73;;
7160;SDS011;3622;53.576;9.978;2023-06-24T12:19:49;306.47;;;151.33;;
7160;SDS011;3622;53.576;9.978;2023-06-24T12:22:15;300.80;;;151.33;;
7160;SDS011;3622;53.576;9.978;2023-06-24T12:24:41;325.57;;;155.27;;
7160;SDS011;3622;53.576;9.978;2023-06-24T12:27:07;307.50;;;154.50;;
7160;SDS011;3622;53.576;9.978;2023-06-24T12:29:33;285.80;;;141.77;;
7160;SDS011;3622;53.576;9.978;2023-06-24T12:31:59;296.10;;;148.43;;
7160;SDS011;3622;53.576;9.978;2023-06-24T12:34:25;282.43;;;144.43;;
7160;SDS011;3622;53.576;9.978;2023-06-24T12:36:51;298.83;;;147.47;;
7160;SDS011;3622;53.576;9.978;2023-06-24T12:39:17;274.90;;;142.73;;
7160;SDS011;3622;53.576;9.978;2023-06-24T12:41:43;262.20;;;135.10;;
7160;SDS011;3622;53.576;9.978;2023-06-24T12:44:09;271.07;;;140.63;;
7160;SDS011;3622;53.576;9.978;2023-06-24T12:46:35;271.00;;;134.17;;
7160;SDS011;3622;53.576;9.978;2023-06-24T12:49:01;278.17;;;141.97;;
7160;SDS011;3622;53.576;9.978;2023-06-24T12:51:27;292.20;;;147.10;;
7160;SDS011;3622;53.576;9.978;2023-06-24T12:53:53;291.33;;;143.80;;
7160;SDS011;3622;53.576;9.978;2023-06-24T12:56:19;289.47;;;145.03;;
7160;SDS011;3622;53.576;9.978;2023-06-24T12:58:45;280.20;;;146.53;;
7160;SDS011;3622;53.576;9.978;2023-06-24T13:01:11;283.83;;;143.73;;
7160;SDS011;3622;53.576;9.978;2023-06-24T13:03:37;287.23;;;146.10;;
7160;SDS011;3622;53.576;9.978;2023-06-24T13:06:03;309.77;;;149.50;;
7160;SDS011;3622;53.576;9.978;2023-06-24T13:08:29;283.67;;;145.77;;
7160;SDS011;3622;53.576;9.978;2023-06-24T13:10:56;293.63;;;150.07;;
7160;SDS011;3622;53.576;9.978;2023-06-24T13:13:22;328.50;;;152.70;;
7160;SDS011;3622;53.576;9.978;2023-06-24T13:15:48;352.40;;;157.20;;
7160;SDS011;3622;53.576;9.978;2023-06-24T13:18:14;335.07;;;157.67;;
7160;SDS011;3622;53.576;9.978;2023-06-24T13:20:40;330.83;;;157.30;;
7160;SDS011;3622;53.576;9.978;2023-06-24T13:23:05;334.20;;;153.73;;
7160;SDS011;3622;53.576;9.978;2023-06-24T13:25:31;316.60;;;156.63;;
7160;SDS011;3622;53.576;9.978;2023-06-24T13:27:57;331.50;;;157.80;;
7160;SDS011;3622;53.576;9.978;2023-06-24T13:30:24;331.80;;;163.47;;
7160;SDS011;3622;53.576;9.978;2023-06-24T13:32:50;314.83;;;153.60;;
7160;SDS011;3622;53.576;9.978;2023-06-24T13:35:16;333.27;;;164.87;;
7160;SDS011;3622;53.576;9.978;2023-06-24T13:37:42;321.67;;;158.30;;
7160;SDS011;3622;53.576;9.978;2023-06-24T13:40:08;308.83;;;157.70;;
7160;SDS011;3622;53.576;9.978;2023-06-24T13:42:34;296.63;;;148.23;;
7160;SDS011;3622;53.576;9.978;2023-06-24T13:45:00;257.23;;;145.93;;
7160;SDS011;3622;53.576;9.978;2023-06-24T13:47:26;263.97;;;143.20;;
7160;SDS011;3622;53.576;9.978;2023-06-24T13:49:52;284.43;;;146.93;;
7160;SDS011;3622;53.576;9.978;2023-06-24T13:52:18;298.67;;;158.27;;
7160;SDS011;3622;53.576;9.978;2023-06-24T13:54:45;283.97;;;152.77;;
7160;SDS011;3622;53.576;9.978;2023-06-24T13:57:12;276.97;;;145.97;;
7160;SDS011;3622;53.576;9.978;2023-06-24T13:59:38;267.00;;;140.70;;
7160;SDS011;3622;53.576;9.978;2023-06-24T14:02:04;250.10;;;138.10;;
7160;SDS011;3622;53.576;9.978;2023-06-24T14:04:30;238.03;;;131.20;;
7160;SDS011;3622;53.576;9.978;2023-06-24T14:06:56;244.07;;;134.50;;
7160;SDS011;3622;53.576;9.978;2023-06-24T14:09:22;249.70;;;137.37;;
7160;SDS011;3622;53.576;9.978;2023-06-24T14:11:48;238.90;;;134.30;;
7160;SDS011;3622;53.576;9.978;2023-06-24T14:14:15;259.37;;;139.47;;
7160;SDS011;3622;53.576;9.978;2023-06-24T14:16:42;272.03;;;141.13;;
7160;SDS011;3622;53.576;9.978;2023-06-24T14:19:08;316.40;;;149.77;;
7160;SDS011;3622;53.576;9.978;2023-06-24T14:21:34;290.40;;;142.47;;
7160;SDS011;3622;53.576;9.978;2023-06-24T14:24:00;307.27;;;153.90;;
7160;SDS011;3622;53.576;9.978;2023-06-24T14:26:26;287.97;;;147.43;;
7160;SDS011;3622;53.576;9.978;2023-06-24T14:28:52;290.47;;;146.97;;
7160;SDS011;3622;53.576;9.978;2023-06-24T14:31:18;284.33;;;147.10;;
7160;SDS011;3622;53.576;9.978;2023-06-24T14:33:45;287.73;;;150.73;;
7160;SDS011;3622;53.576;9.978;2023-06-24T14:36:11;278.87;;;146.63;;
7160;SDS011;3622;53.576;9.978;2023-06-24T14:38:37;324.07;;;159.33;;
7160;SDS011;3622;53.576;9.978;2023-06-24T14:41:04;314.17;;;157.67;;